createdAt,value
2022-12-18T15:52:57.251Z,-3.10
2022-12-18T15:55:43.700Z,-3.00
2022-12-18T15:58:12.905Z,-3.10
2022-12-18T16:00:42.603Z,-2.90
2022-12-18T16:03:11.987Z,-2.70
2022-12-18T16:05:40.208Z,-2.40
2022-12-18T16:08:09.328Z,-2.50
2022-12-18T16:10:37.405Z,-2.30
2022-12-18T16:13:05.388Z,-2.60
2022-12-18T16:15:33.138Z,-2.90
2022-12-18T16:18:00.985Z,-2.40
2022-12-18T16:20:28.865Z,-2.40
2022-12-18T16:22:56.570Z,-2.30
2022-12-18T16:25:28.044Z,-2.40
2022-12-18T16:27:57.243Z,-2.90
2022-12-18T16:30:28.057Z,-2.40
2022-12-18T16:32:57.198Z,-2.30
2022-12-18T16:35:27.774Z,-2.30
2022-12-18T16:37:55.592Z,-2.30
2022-12-18T16:40:25.516Z,-2.20
2022-12-18T16:42:53.445Z,-2.20
2022-12-18T16:45:21.321Z,-2.00
2022-12-18T16:47:49.064Z,-2.20
2022-12-18T16:50:16.904Z,-2.30
2022-12-18T16:52:44.693Z,-2.20
2022-12-18T16:55:12.415Z,-2.30
2022-12-18T16:57:41.438Z,-2.30
2022-12-18T17:00:10.753Z,-2.10
2022-12-18T17:02:38.812Z,-2.20
2022-12-18T17:05:07.512Z,-2.10
2022-12-18T17:07:35.377Z,-2.10
2022-12-18T17:10:04.748Z,-2.10
2022-12-18T17:12:32.933Z,-2.20
2022-12-18T17:15:02.274Z,-1.80
2022-12-18T17:17:29.995Z,-1.90
2022-12-18T17:19:57.726Z,-2.00
2022-12-18T17:22:25.919Z,-2.10
2022-12-18T17:24:53.938Z,-2.10
2022-12-18T17:27:21.673Z,-2.00
2022-12-18T17:29:49.553Z,-2.20
2022-12-18T17:32:19.677Z,-2.00
2022-12-18T17:34:47.577Z,-1.90
2022-12-18T17:37:17.031Z,-1.90
2022-12-18T17:39:45.032Z,-1.90
2022-12-18T17:42:14.960Z,-2.10
2022-12-18T17:44:43.606Z,-2.00
2022-12-18T17:47:12.221Z,-2.00
2022-12-18T17:49:41.931Z,-2.10
2022-12-18T17:52:10.142Z,-2.00
2022-12-18T17:54:41.267Z,-2.10
2022-12-18T17:57:09.201Z,-2.20
2022-12-18T17:59:37.082Z,-2.20
2022-12-18T18:02:05.175Z,-2.30
2022-12-18T18:04:33.125Z,-2.10
2022-12-18T18:07:02.161Z,-2.20
2022-12-18T18:09:29.962Z,-2.10
2022-12-18T18:12:14.912Z,-2.00
2022-12-18T18:14:42.853Z,-2.20
2022-12-18T18:17:11.424Z,-2.20
2022-12-18T18:19:39.389Z,-2.00
2022-12-18T18:22:09.491Z,-2.20
2022-12-18T18:24:37.634Z,-2.00
2022-12-18T18:27:05.659Z,-2.20
2022-12-18T18:29:33.442Z,-2.20
2022-12-18T18:32:01.802Z,-2.00
2022-12-18T18:34:32.423Z,-2.50
2022-12-18T18:37:01.280Z,-2.10
2022-12-18T18:39:31.120Z,-1.80
2022-12-18T18:41:59.419Z,-1.90
2022-12-18T18:44:27.174Z,-1.90
2022-12-18T18:46:55.924Z,-2.10
2022-12-18T18:49:26.908Z,-1.90
2022-12-18T18:51:54.846Z,-2.00
2022-12-18T18:54:22.601Z,-2.00
2022-12-18T18:59:39.870Z,-2.10
2022-12-18T19:02:10.167Z,-1.80
2022-12-18T19:04:44.714Z,-2.00
2022-12-18T19:07:15.085Z,-1.80
2022-12-18T19:09:54.092Z,-1.80
2022-12-18T19:12:41.302Z,-1.80
2022-12-18T19:15:09.660Z,-1.80
2022-12-18T19:17:38.293Z,-2.00
2022-12-18T19:20:08.292Z,-1.90
2022-12-18T19:22:38.415Z,-1.90
2022-12-18T19:25:07.083Z,-1.90
2022-12-18T19:27:39.943Z,-2.60
2022-12-18T19:30:09.201Z,-1.80
2022-12-18T19:32:37.291Z,-1.90
2022-12-18T19:35:06.023Z,-2.00
2022-12-18T19:37:35.875Z,-2.00
2022-12-18T19:40:06.067Z,-1.90
2022-12-18T19:42:41.691Z,-1.60
2022-12-18T19:45:10.078Z,-1.90
2022-12-18T19:47:38.045Z,-1.70
2022-12-18T19:50:06.953Z,-1.90
2022-12-18T19:52:34.889Z,-1.50
2022-12-18T19:55:02.968Z,-1.90
2022-12-18T19:57:30.841Z,-1.70
2022-12-18T20:00:00.184Z,-1.90
2022-12-18T20:02:29.638Z,-1.60
2022-12-18T20:04:58.198Z,-1.80
2022-12-18T20:07:26.024Z,-1.90
2022-12-18T20:09:59.587Z,-1.90
2022-12-18T20:12:34.565Z,-1.60
2022-12-18T20:15:04.039Z,-1.80
2022-12-18T20:17:31.888Z,-1.80
2022-12-18T20:20:00.404Z,-1.90
2022-12-18T20:22:28.715Z,-2.00
2022-12-18T20:24:56.796Z,-1.80
2022-12-18T20:27:24.688Z,-1.90
2022-12-18T20:29:52.593Z,-1.90
2022-12-18T20:32:21.883Z,-2.00
2022-12-18T20:34:49.810Z,-1.90
2022-12-18T20:37:17.637Z,-1.90
2022-12-18T20:39:47.063Z,-2.00
2022-12-18T20:42:15.250Z,-1.80
2022-12-18T20:44:43.010Z,-1.90
2022-12-18T20:47:10.929Z,-2.00
2022-12-18T20:49:40.210Z,-1.70
2022-12-18T20:52:13.053Z,-1.90
2022-12-18T20:54:40.895Z,-1.90
2022-12-18T20:57:08.811Z,-2.00
2022-12-18T20:59:36.622Z,-2.00
2022-12-18T21:02:04.712Z,-1.90
